Flight Track Log - Related Links

Times and Time Zones

All times are in EDT time to prevent confusion due to time zone crossing. See the DAL571 flight status page for this flight to view local times or setup timezone preferences in your user account.


Time Position Orientation Groundspeed Altitude Reporting Facility
EDT Latitude Longitude Course Direction KTS MPH feet Rate Location/Type
Fri 10:18:19 AM 33.5833 -84.5667 145° Southeast 241 277 6,200  Level Atlanta TRACON
Fri 10:19:00 AM 33.3448 -84.2281 140° Southeast  Level FlightAware Approximate
Fri 10:19:53 AM 33.4611 -84.5867 188° South 280 322 9,900  Level Atlanta Center
Fri 10:20:00 AM 33.2423 -84.1254 140° Southeast  Level FlightAware Approximate
Fri 10:20:53 AM 33.4011 -84.4967 129° Southeast 348 400 10,600  Level Atlanta Center
Fri 10:21:00 AM 33.1398 -84.0230 140° Southeast  Level FlightAware Approximate
Fri 10:21:53 AM 33.3386 -84.3944 126° Southeast 391 450 12,500  Level Atlanta Center
Fri 10:22:00 AM 33.0388 -83.9294 145° Southeast  Level FlightAware Approximate
Fri 10:22:53 AM 33.2722 -84.2797 125° Southeast 411 473 14,900  Level Atlanta Center
Fri 10:23:00 AM 32.9329 -83.8409 145° Southeast  Level FlightAware Approximate
Fri 10:23:53 AM 33.1992 -84.1728 129° Southeast 420 483 17,300  Level Atlanta Center
Fri 10:24:53 AM 33.1264 -84.0439 124° Southeast 439 505 19,400 2,050 Climbing Atlanta Center
Fri 10:25:53 AM 33.0364 -83.9372 135° Southeast 450 518 21,400 1,850 Climbing Atlanta Center
Fri 10:26:53 AM 32.9319 -83.8508 145° Southeast 457 526 23,100 1,650 Climbing Atlanta Center
Fri 10:27:53 AM 32.8169 -83.7544 145° Southeast 464 534 24,700 1,550 Climbing Atlanta Center
Fri 10:28:53 AM 32.7042 -83.6586 144° Southeast 476 548 26,200 1,100 Climbing Atlanta Center
Fri 10:29:53 AM 32.5953 -83.5531 141° Southeast 487 560 26,900 350 Climbing Atlanta Center
Fri 10:30:53 AM 32.4925 -83.4528 141° Southeast 492 566 26,900 50 Level Atlanta Center
Fri 10:31:53 AM 32.3856 -83.3453 140° Southeast 499 574 27,000 832 Climbing Atlanta Center
Fri 10:33:10 AM 32.2600 -83.2144 139° Southeast 528 608 28,800 1,489 Climbing Jacksonville Center
Fri 10:34:10 AM 32.1517 -83.1108 141° Southeast 516 594 30,400 1,550 Climbing Jacksonville Center
Fri 10:35:10 AM 32.0475 -83.0078 140° Southeast 505 581 31,900 1,450 Climbing Jacksonville Center
Fri 10:36:10 AM 31.9431 -82.9047 140° Southeast 498 573 33,300 1,350 Climbing Jacksonville Center
Fri 10:37:10 AM 31.8408 -82.8044 140° Southeast 491 565 34,600 1,450 Climbing Jacksonville Center
Fri 10:38:10 AM 31.7300 -82.7142 145° Southeast 491 565 36,200 1,250 Climbing Jacksonville Center
Fri 10:39:10 AM 31.6172 -82.6364 150° Southeast 474 545 37,100 700 Climbing Jacksonville Center
Fri 10:40:10 AM 31.5064 -82.5586 149° Southeast 469 540 37,600 400 Climbing Jacksonville Center
Fri 10:41:10 AM 31.3911 -82.4764 149° Southeast 469 540 37,900 150 Climbing Jacksonville Center
Fri 10:42:10 AM 31.2636 -82.3967 152° Southeast 469 540 37,900  Level Jacksonville Center
Fri 10:44:10 AM 31.0333 -82.2428 150° Southeast 481 554 37,900  Level Jacksonville Center
Fri 10:45:10 AM 30.9158 -82.1686 152° Southeast 481 554 37,900  Level Jacksonville Center
Fri 10:46:10 AM 30.8006 -82.0897 150° Southeast 481 554 37,900  Level Jacksonville Center
Fri 10:47:10 AM 30.6894 -82.0156 150° Southeast 476 548 37,900  Level Jacksonville Center
Fri 10:48:10 AM 30.5761 -81.9394 150° Southeast 470 541 37,900  Level Jacksonville Center
Fri 10:49:10 AM 30.4628 -81.8611 149° Southeast 470 541 37,900  Level Jacksonville Center
Fri 10:50:10 AM 30.3453 -81.7831 150° Southeast 470 541 37,900  Level Jacksonville Center
Fri 10:51:10 AM 30.2403 -81.7169 151° Southeast 473 544 37,900  Level Jacksonville Center
Fri 10:52:10 AM 30.1267 -81.6439 151° Southeast 473 544 37,900  Level Jacksonville Center
Fri 10:53:10 AM 30.0133 -81.5733 152° Southeast 473 544 37,900  Level Jacksonville Center
Fri 10:54:10 AM 29.9019 -81.5006 150° Southeast 468 539 37,900  Level Jacksonville Center
Fri 10:56:06 AM 29.6694 -81.3494 151° Southeast 468 539 37,900  Level Miami Center
Fri 10:57:06 AM 29.5531 -81.2756 151° Southeast 468 539 37,900  Level Miami Center
Fri 10:58:06 AM 29.4386 -81.2017 151° Southeast 473 544 37,900  Level Miami Center
Fri 10:59:06 AM 29.3361 -81.1383 152° Southeast 473 544 37,900  Level Miami Center
Fri 11:00:06 AM 29.2328 -81.0392 140° Southeast 478 550 37,900  Level Miami Center
Fri 11:01:06 AM 29.1336 -80.9333 137° Southeast 483 556 37,900  Level Miami Center
Fri 11:02:06 AM 29.0367 -80.8253 136° Southeast 483 556 37,900  Level Miami Center
Fri 11:03:06 AM 28.9272 -80.7050 136° Southeast 488 562 37,900  Level Miami Center
Fri 11:04:06 AM 28.8342 -80.5906 133° Southeast 488 562 37,900  Level Miami Center
Fri 11:05:06 AM 28.7519 -80.4647 127° Southeast 493 567 37,900  Level Miami Center
Fri 11:06:06 AM 28.6739 -80.3319 124° Southeast 500 575 37,900 50 Level Miami Center
Fri 11:07:06 AM 28.6058 -80.2142 123° Southeast 505 581 38,000  Climbing Miami Center
Fri 11:08:06 AM 28.5253 -80.0817 125° Southeast 499 574 37,900 -50 Descending Miami Center
Fri 11:09:06 AM 28.4367 -79.9375 125° Southeast 504 580 37,900  Level Miami Center
Fri 11:10:06 AM 28.3539 -79.8056 125° Southeast 504 580 37,900  Level Miami Center
Fri 11:11:06 AM 28.2731 -79.6714 124° Southeast 510 587 37,900  Level Miami Center
Fri 11:12:06 AM 28.1922 -79.5375 124° Southeast 510 587 37,900  Level Miami Center
Fri 11:13:06 AM 28.1111 -79.4036 124° Southeast 510 587 37,900  Level Miami Center
Fri 11:14:06 AM 28.0278 -79.2725 126° Southeast 515 593 37,900  Level Miami Center
Fri 11:15:06 AM 27.9464 -79.1392 125° Southeast 515 593 37,900 250 Level Miami Center
Fri 11:16:06 AM 27.8669 -79.0083 124° Southeast 520 598 38,400 500 Climbing Miami Center
Fri 11:17:06 AM 27.7917 -78.8847 125° Southeast 520 598 38,900 250 Climbing Miami Center
Fri 11:18:06 AM 27.6994 -78.7400 126° Southeast 520 598 38,900  Level Miami Center
Fri 11:19:06 AM 27.6156 -78.6050 125° Southeast 526 605 38,900  Level Miami Center
Fri 11:20:06 AM 27.5336 -78.4656 124° Southeast 526 605 38,900  Level Miami Center
Fri 11:21:06 AM 27.4536 -78.3286 123° Southeast 526 605 38,900  Level Miami Center
Fri 11:22:06 AM 27.3736 -78.1897 123° Southeast 526 605 38,900  Level Miami Center
Fri 11:23:06 AM 27.3058 -78.0697 122° Southeast 520 598 38,900  Level Miami Center
Fri 11:24:06 AM 27.2253 -77.9333 124° Southeast 527 606 38,900  Level Miami Center
Fri 11:25:06 AM 27.1406 -77.7947 124° Southeast 528 608 38,900  Level Miami Center
Fri 11:26:06 AM 27.0622 -77.6542 122° Southeast 528 608 38,900  Level Miami Center
Fri 11:27:06 AM 26.9814 -77.5139 123° Southeast 528 608 38,900  Level Miami Center
Fri 11:28:06 AM 26.8900 -77.3619 124° Southeast 533 613 38,900  Level Miami Center
Fri 11:29:06 AM 26.8111 -77.2311 124° Southeast 519 597 38,900  Level Miami Center
Fri 11:30:06 AM 26.7256 -77.0889 124° Southeast 525 604 38,900  Level Miami Center
Fri 11:31:06 AM 26.6464 -76.9564 124° Southeast 531 611 38,900  Level Miami Center
Fri 11:32:06 AM 26.5628 -76.8214 125° Southeast 531 611 38,900  Level Miami Center
Fri 11:33:06 AM 26.4792 -76.6822 124° Southeast 531 611 38,900  Level Miami Center
Fri 11:34:06 AM 26.3975 -76.5456 124° Southeast 531 611 38,900  Level Miami Center
Fri 11:35:06 AM 26.3136 -76.4089 124° Southeast 531 611 38,900  Level Miami Center
Fri 11:36:06 AM 26.2294 -76.2750 125° Southeast 531 611 38,900  Level Miami Center
Fri 11:37:06 AM 26.1600 -76.1572 123° Southeast 526 605 38,900  Level Miami Center
Fri 11:38:06 AM 26.0756 -76.0211 125° Southeast 531 611 38,900  Level Miami Center
Fri 11:39:06 AM 25.9953 -75.8853 123° Southeast 531 611 38,900  Level Miami Center
Fri 11:40:06 AM 25.9108 -75.7475 124° Southeast 531 611 38,900  Level Miami Center
Fri 11:41:06 AM 25.8242 -75.6119 125° Southeast 531 611 38,900  Level Miami Center
Fri 11:42:06 AM 25.7392 -75.4769 125° Southeast 538 619 38,900  Level Miami Center
Fri 11:43:06 AM 25.6544 -75.3417 125° Southeast 533 613 38,900  Level Miami Center
Fri 11:44:06 AM 25.5714 -75.2069 124° Southeast 533 613 38,900  Level Miami Center
Fri 11:45:06 AM 25.4861 -75.0700 125° Southeast 533 613 38,900  Level Miami Center
Fri 11:46:06 AM 25.4031 -74.9331 124° Southeast 533 613 38,900  Level Miami Center
Fri 11:47:06 AM 25.3175 -74.8011 126° Southeast 533 613 38,900  Level Miami Center
Fri 11:48:06 AM 25.2319 -74.6647 125° Southeast 533 613 38,900  Level Miami Center
Fri 11:49:06 AM 25.1483 -74.5333 125° Southeast 533 613 38,900  Level Miami Center
Fri 11:50:06 AM 25.0628 -74.3972 125° Southeast 533 613 38,900  Level Miami Center
Fri 11:51:06 AM 24.9769 -74.2661 126° Southeast 533 613 38,900  Level Miami Center
Fri 11:52:06 AM 24.8886 -74.1306 126° Southeast 533 613 38,900  Level Miami Center
Fri 11:53:06 AM 24.8067 -73.9972 124° Southeast 538 619 38,900  Level Miami Center
Fri 11:54:06 AM 24.7206 -73.8619 125° Southeast 538 619 38,900  Level Miami Center
Fri 11:55:06 AM 24.6322 -73.7292 126° Southeast 538 619 38,900  Level Miami Center
Fri 11:56:06 AM 24.5478 -73.5989 125° Southeast 538 619 38,900  Level Miami Center
Fri 11:57:06 AM 24.4633 -73.4619 124° Southeast 538 619 38,900  Level Miami Center
Fri 11:58:06 AM 24.3725 -73.3275 127° Southeast 538 619 38,900  Level Miami Center
Fri 11:59:06 AM 24.2878 -73.1956 125° Southeast 538 619 38,900  Level Miami Center
Fri 12:00:06 PM 24.2008 -73.0614 125° Southeast 539 620 38,900  Level Miami Center
Fri 12:01:06 PM 24.1139 -72.9300 126° Southeast 534 615 38,900  Level Miami Center
Fri 12:02:06 PM 24.0247 -72.7986 127° Southeast 539 620 38,900  Level Miami Center
Fri 12:03:06 PM 23.9375 -72.6672 126° Southeast 539 620 38,900  Level Miami Center
Fri 12:04:06 PM 23.8500 -72.5339 126° Southeast 539 620 38,900  Level Miami Center
Fri 12:05:06 PM 23.7669 -72.4006 124° Southeast 539 620 38,900  Level Miami Center
Fri 12:06:06 PM 23.6794 -72.2767 128° Southeast 539 620 38,900  Level Miami Center
Fri 12:07:06 PM 23.5958 -72.1347 123° Southeast 540 621 38,900  Level Miami Center
Fri 12:08:06 PM 23.5061 -72.0092 128° Southeast 540 621 38,900  Level Miami Center
Fri 12:09:06 PM 23.4183 -71.8789 126° Southeast 540 621 38,900  Level Miami Center
Fri 12:10:06 PM 23.3306 -71.7511 127° Southeast 540 621 38,900  Level Miami Center
Fri 12:11:06 PM 23.2467 -71.6214 125° Southeast 540 621 38,900  Level Miami Center
Fri 12:12:06 PM 23.1519 -71.4808 126° Southeast 535 616 38,900  Level Miami Center
Fri 12:13:06 PM 23.0619 -71.3536 128° Southeast 535 616 38,900  Level Miami Center
Fri 12:14:06 PM 22.9778 -71.2264 126° Southeast 535 616 38,900  Level Miami Center
Fri 12:15:06 PM 22.8917 -71.0997 126° Southeast 530 610 38,900  Level Miami Center
Fri 12:16:06 PM 22.8056 -70.9753 127° Southeast 525 604 38,900  Level Miami Center
Fri 12:17:06 PM 22.7169 -70.8467 127° Southeast 525 604 38,900  Level Miami Center
Fri 12:18:06 PM 22.6303 -70.7156 126° Southeast 525 604 38,900  Level Miami Center
Fri 12:19:06 PM 22.5439 -70.5917 127° Southeast 525 604 38,900  Level Miami Center
Fri 12:20:06 PM 22.4594 -70.4678 126° Southeast 525 604 38,900  Level Miami Center
Fri 12:21:06 PM 22.3725 -70.3375 126° Southeast 525 604 38,900  Level Miami Center
Fri 12:22:06 PM 22.2836 -70.2119 127° Southeast 530 610 38,900  Level Miami Center
Fri 12:23:06 PM 22.1989 -70.0908 127° Southeast 530 610 38,900  Level Miami Center
Fri 12:24:06 PM 22.1119 -69.9633 126° Southeast 530 610 38,900  Level Miami Center
Fri 12:25:06 PM 22.0250 -69.8383 127° Southeast 530 610 38,900  Level Miami Center
Fri 12:26:06 PM 21.9378 -69.7133 127° Southeast 530 610 38,900  Level Miami Center
Fri 12:27:06 PM 21.8547 -69.5883 126° Southeast 525 604 38,900  Level Miami Center
Fri 12:28:06 PM 21.7653 -69.4636 128° Southeast 525 604 38,900  Level Miami Center
Fri 12:29:06 PM 21.6822 -69.3411 126° Southeast 525 604 38,900  Level Miami Center
Fri 12:30:06 PM 21.5972 -69.2233 128° Southeast 518 596 38,900  Level Miami Center
Fri 12:31:06 PM 21.5097 -69.1014 128° Southeast 513 590 38,900  Level Miami Center
Fri 12:32:06 PM 21.4225 -68.9797 128° Southeast 513 590 38,900  Level Miami Center
Fri 12:33:06 PM 21.3328 -68.8606 129° Southeast 513 590 38,900  Level Miami Center
Fri 12:34:06 PM 21.2578 -68.7406 124° Southeast 508 585 38,900  Level Miami Center
Fri 12:35:06 PM 21.1703 -68.6214 128° Southeast 508 585 38,900  Level Miami Center
Fri 12:36:06 PM 21.1069 -68.5278 126° Southeast 508 585 38,900  Level Miami Center
Fri 12:37:06 PM 21.0147 -68.4003 128° Southeast 502 578 38,900  Level Miami Center
Fri 12:38:06 PM 20.9289 -68.2817 128° Southeast 502 578 38,900  Level Miami Center
Fri 12:39:06 PM 20.8414 -68.1675 129° Southeast 502 578 38,900  Level Miami Center
Fri 12:40:06 PM 20.7475 -68.0542 132° Southeast 507 583 38,900  Level Miami Center
Fri 12:41:06 PM 20.6658 -67.9356 126° Southeast 507 583 38,900  Level Miami Center
Fri 12:42:06 PM 20.5761 -67.8222 130° Southeast 501 577 38,900  Level Miami Center
Fri 12:43:06 PM 20.4925 -67.7083 128° Southeast 501 577 38,900  Level Miami Center
Fri 12:44:06 PM 20.4108 -67.5947 127° Southeast 496 571 38,900 44 Level Miami Center
Fri 12:45:23 PM 20.2833 -67.4500 133° Southeast 490 564 39,000 44 Climbing San Juan Center
Fri 12:46:23 PM 20.2000 -67.3333 127° Southeast 500 575 39,000 -50 Level San Juan Center
Fri 12:47:23 PM 20.1000 -67.2167 132° Southeast 500 575 38,900 -250 Descending San Juan Center
Fri 12:48:23 PM 20.0167 -67.1000 127° Southeast 490 564 38,500 -843 Descending San Juan Center
Fri 12:49:24 PM 19.9333 -66.9833 127° Southeast 500 575 37,200 -1,190 Descending San Juan Center
Fri 12:50:24 PM 19.8500 -66.8667 127° Southeast 510 587 36,100 -1,000 Descending San Juan Center
Fri 12:51:24 PM 19.7500 -66.7500 132° Southeast 510 587 35,200 -893 Descending San Juan Center
Fri 12:52:25 PM 19.6667 -66.6333 127° Southeast 500 575 34,300 -992 Descending San Juan Center
Fri 12:53:25 PM 19.5667 -66.5167 132° Southeast 510 587 33,200 -1,050 Descending San Juan Center
Fri 12:54:25 PM 19.4833 -66.4000 127° Southeast 510 587 32,200 -1,190 Descending San Juan Center
Fri 12:55:26 PM 19.4000 -66.2833 127° Southeast 500 575 30,800 -2,331 Descending San Juan Center
Fri 12:56:26 PM 19.3000 -66.1667 132° Southeast 500 575 27,500 -3,050 Descending San Juan Center
Fri 12:57:26 PM 19.2167 -66.0667 131° Southeast 500 575 24,700 -2,700 Descending San Juan Center
Fri 12:58:26 PM 19.1333 -65.9500 127° Southeast 480 552 22,100 -2,529 Descending San Juan Center
Fri 12:59:27 PM 19.0333 -65.8333 132° Southeast 460 529 19,600 -2,430 Descending San Juan Center
Fri 01:00:27 PM 18.9667 -65.7167 121° Southeast 430 495 17,200 -2,300 Descending San Juan Center
Fri 01:01:27 PM 18.8833 -65.6333 137° Southeast 420 483 15,000 -2,182 Descending San Juan Center
Fri 01:02:28 PM 18.8000 -65.5500 137° Southeast 400 460 12,800 -2,231 Descending San Juan Center
Fri 01:03:28 PM 18.7167 -65.4833 143° Southeast 380 437 10,500 -1,950 Descending San Juan Center
Fri 01:04:28 PM 18.6333 -65.4167 143° Southeast 360 414 8,900 -1,190 Descending San Juan Center
Fri 01:05:29 PM 18.5667 -65.3667 145° Southeast 320 368 8,100 -744 Descending San Juan Center
Fri 01:06:29 PM 18.5000 -65.3167 145° Southeast 280 322 7,400 -950 Descending San Juan Center
Fri 01:07:29 PM 18.4333 -65.2667 145° Southeast 260 299 6,200 -1,686 Descending San Juan Center
Fri 01:08:30 PM 18.3833 -65.2167 136° Southeast 260 299 4,000 -1,537 Descending San Juan Center
Fri 01:09:30 PM 18.3333 -65.1667 136° Southeast 250 288 3,100 -800 Descending San Juan Center
Fri 01:10:30 PM 18.3167 -65.1000 105° East 210 242 2,400 -900 Descending San Juan Center
Fri 01:11:30 PM 18.3333 -65.0500 71° East 170 196 1,300 -893 Descending San Juan Center
Fri 01:12:31 PM 18.3333 -65.0000 90° East 150 173 600 -689 Descending San Juan Center

Login

Don't have an account? Register now (free) for customized features, flight alerts, and more!